createdAt,value
2023-02-16T00:01:37.957Z,51.85
2023-02-16T00:03:40.746Z,52.20
2023-02-16T00:05:43.794Z,51.90
2023-02-16T00:07:46.628Z,51.90
2023-02-16T00:09:49.689Z,52.00
2023-02-16T00:12:11.299Z,52.06
2023-02-16T00:14:15.967Z,52.21
2023-02-16T00:16:20.860Z,52.15
2023-02-16T00:18:23.682Z,52.29
2023-02-16T00:20:26.614Z,52.36
2023-02-16T00:22:29.742Z,52.17
2023-02-16T00:24:32.792Z,52.19
2023-02-16T00:26:36.358Z,52.08
2023-02-16T00:28:39.165Z,51.95
2023-02-16T00:30:43.408Z,52.16
2023-02-16T00:32:46.444Z,52.11
2023-02-16T00:34:49.292Z,51.93
2023-02-16T00:36:52.164Z,52.12
2023-02-16T00:38:54.972Z,52.09
2023-02-16T00:40:57.745Z,51.71
2023-02-16T00:43:00.500Z,52.06
2023-02-16T00:45:03.883Z,51.95
2023-02-16T00:47:19.775Z,52.07
2023-02-16T00:49:23.713Z,51.89
2023-02-16T00:51:27.723Z,52.13
2023-02-16T00:53:30.764Z,52.01
2023-02-16T00:55:36.226Z,52.07
2023-02-16T00:57:42.271Z,51.93
2023-02-16T00:59:45.386Z,51.74
2023-02-16T01:01:49.429Z,51.72
2023-02-16T01:03:53.877Z,52.07
2023-02-16T01:06:11.407Z,51.85
2023-02-16T01:08:34.216Z,51.81
2023-02-16T01:10:57.603Z,51.98
2023-02-16T01:13:02.163Z,51.97
2023-02-16T01:15:07.580Z,51.81
2023-02-16T01:17:11.690Z,52.13
2023-02-16T01:19:15.954Z,51.92
2023-02-16T01:21:18.871Z,52.08
2023-02-16T01:23:21.845Z,52.16
2023-02-16T01:25:24.729Z,51.82
2023-02-16T01:27:27.468Z,52.08
2023-02-16T01:29:30.536Z,51.89
2023-02-16T01:31:33.736Z,51.71
2023-02-16T01:33:36.633Z,52.03
2023-02-16T01:35:41.349Z,51.95
2023-02-16T01:37:44.102Z,51.76
2023-02-16T01:39:46.830Z,52.28
2023-02-16T01:42:00.849Z,51.98
2023-02-16T01:44:06.155Z,52.22
2023-02-16T01:46:14.996Z,52.13
2023-02-16T01:48:23.274Z,51.89
2023-02-16T01:50:28.775Z,52.00
2023-02-16T01:52:38.418Z,52.17
2023-02-16T01:54:45.382Z,52.02
2023-02-16T01:56:52.890Z,52.06
2023-02-16T01:58:59.250Z,52.16
2023-02-16T02:01:43.850Z,52.03
2023-02-16T02:04:04.124Z,52.12
2023-02-16T02:06:11.109Z,51.86
2023-02-16T02:08:22.893Z,51.97
2023-02-16T02:10:35.830Z,52.00
2023-02-16T02:12:47.168Z,52.12
2023-02-16T02:14:50.141Z,51.73
2023-02-16T02:16:56.652Z,51.96
2023-02-16T02:18:59.409Z,51.84
2023-02-16T02:21:31.199Z,52.12
2023-02-16T02:23:49.011Z,51.82
2023-02-16T02:26:31.103Z,52.07
2023-02-16T02:28:41.941Z,51.91
2023-02-16T02:30:50.565Z,52.12
2023-02-16T02:33:14.735Z,51.93
2023-02-16T02:35:28.160Z,52.09
2023-02-16T02:37:45.240Z,52.09
2023-02-16T02:39:57.486Z,51.99
2023-02-16T02:42:04.967Z,51.94
2023-02-16T02:44:10.613Z,52.00
2023-02-16T02:46:18.614Z,52.08
2023-02-16T02:48:21.441Z,52.29
2023-02-16T02:50:38.652Z,52.41
2023-02-16T02:52:41.366Z,51.98
2023-02-16T02:55:01.879Z,52.30
2023-02-16T02:57:27.377Z,52.17
2023-02-16T02:59:50.552Z,52.19
2023-02-16T03:01:57.624Z,52.10
2023-02-16T03:04:03.886Z,52.41
2023-02-16T03:06:10.606Z,52.43
2023-02-16T03:08:16.610Z,52.40
2023-02-16T03:10:39.710Z,52.19
2023-02-16T03:12:48.590Z,52.39
2023-02-16T03:14:57.414Z,52.24
2023-02-16T03:17:20.444Z,52.00
2023-02-16T03:19:40.647Z,52.17
2023-02-16T03:22:01.657Z,52.26
2023-02-16T03:24:26.753Z,52.15
2023-02-16T03:26:48.923Z,52.00
2023-02-16T03:29:10.480Z,51.95
2023-02-16T03:31:21.548Z,51.96
2023-02-16T03:33:25.867Z,52.23
2023-02-16T03:35:30.146Z,52.08
2023-02-16T03:37:33.854Z,52.28
2023-02-16T03:39:56.737Z,51.94
2023-02-16T03:41:59.612Z,52.15
2023-02-16T03:44:02.389Z,52.20
2023-02-16T03:46:05.401Z,51.92
2023-02-16T03:48:10.347Z,52.29
2023-02-16T03:50:13.502Z,51.94
2023-02-16T03:52:16.469Z,52.08
2023-02-16T03:54:19.212Z,52.24
2023-02-16T03:56:22.009Z,52.11
2023-02-16T03:58:26.372Z,52.11
2023-02-16T04:00:29.795Z,52.18
2023-02-16T04:02:32.729Z,52.42
2023-02-16T04:04:37.107Z,52.32
2023-02-16T04:06:39.914Z,52.50
2023-02-16T04:08:42.833Z,52.43
2023-02-16T04:10:45.608Z,52.47
2023-02-16T04:13:07.936Z,52.37
2023-02-16T04:15:32.428Z,52.53
2023-02-16T04:17:35.278Z,52.42
2023-02-16T04:19:39.432Z,52.57
2023-02-16T04:21:42.892Z,52.43
2023-02-16T04:23:45.706Z,52.21
2023-02-16T04:25:48.553Z,52.39
2023-02-16T04:27:52.296Z,52.45
2023-02-16T04:29:55.098Z,52.20
2023-02-16T04:31:58.011Z,52.35
2023-02-16T04:34:00.805Z,52.22
2023-02-16T04:36:05.360Z,52.12
2023-02-16T04:38:08.202Z,52.21
2023-02-16T04:40:13.562Z,52.06
2023-02-16T04:42:16.400Z,52.34
2023-02-16T04:44:19.345Z,52.20
2023-02-16T04:46:22.163Z,52.39
2023-02-16T04:48:25.017Z,52.47
2023-02-16T04:50:27.868Z,52.30
2023-02-16T04:52:34.199Z,52.28
2023-02-16T04:54:36.952Z,51.96
2023-02-16T04:56:39.754Z,52.06
2023-02-16T04:58:42.851Z,52.23
2023-02-16T05:00:45.805Z,52.24
2023-02-16T05:02:48.682Z,51.82
2023-02-16T05:04:51.618Z,51.71
2023-02-16T05:06:54.649Z,51.77
2023-02-16T05:08:58.803Z,51.85
2023-02-16T05:11:18.760Z,51.92
2023-02-16T05:13:40.251Z,52.16
2023-02-16T05:15:45.230Z,52.25
2023-02-16T05:17:48.238Z,52.21
2023-02-16T05:19:52.991Z,52.26
2023-02-16T05:21:55.916Z,52.31
2023-02-16T05:24:00.772Z,52.33
2023-02-16T05:26:03.487Z,52.13
2023-02-16T05:28:06.422Z,52.28
2023-02-16T05:30:10.210Z,52.40
2023-02-16T05:32:13.480Z,52.26
2023-02-16T05:34:16.257Z,52.27
2023-02-16T05:36:19.036Z,52.48
2023-02-16T05:38:21.835Z,52.46
2023-02-16T05:40:26.079Z,52.61
2023-02-16T05:42:28.999Z,52.87
2023-02-16T05:44:31.840Z,52.95
2023-02-16T05:46:37.736Z,53.02
2023-02-16T05:48:40.534Z,53.06
2023-02-16T05:50:43.269Z,52.97
2023-02-16T05:52:46.358Z,53.08
2023-02-16T05:54:49.164Z,53.20
2023-02-16T05:56:54.070Z,52.99
2023-02-16T05:58:57.193Z,53.25
2023-02-16T06:01:00.097Z,53.26
2023-02-16T06:03:02.936Z,53.46
2023-02-16T06:05:06.066Z,53.40
2023-02-16T06:07:08.831Z,53.52
2023-02-16T06:09:11.672Z,53.62
2023-02-16T06:11:28.469Z,53.87
2023-02-16T06:13:32.728Z,53.68
2023-02-16T06:15:35.555Z,53.51
2023-02-16T06:17:38.492Z,53.80
2023-02-16T06:19:41.308Z,53.96
2023-02-16T06:21:44.518Z,53.82
2023-02-16T06:23:47.622Z,53.95
2023-02-16T06:25:51.640Z,54.16
2023-02-16T06:27:55.938Z,54.16
2023-02-16T06:30:00.243Z,54.25
2023-02-16T06:32:03.319Z,54.17
2023-02-16T06:34:06.412Z,54.18
2023-02-16T06:36:09.654Z,54.05
2023-02-16T06:38:12.469Z,54.02
2023-02-16T06:40:17.445Z,54.35
2023-02-16T06:42:20.368Z,54.16
2023-02-16T06:44:23.157Z,53.99
2023-02-16T06:46:27.373Z,53.98
2023-02-16T06:48:30.257Z,54.27
2023-02-16T06:50:33.154Z,54.17
2023-02-16T06:52:36.009Z,54.40
2023-02-16T06:54:39.956Z,53.92
2023-02-16T06:56:43.177Z,53.95
2023-02-16T06:58:45.944Z,53.95
2023-02-16T07:00:48.741Z,54.29
2023-02-16T07:02:53.185Z,54.31
2023-02-16T07:04:56.188Z,54.05
2023-02-16T07:06:59.166Z,53.86
2023-02-16T07:09:02.101Z,53.86
2023-02-16T07:11:05.548Z,54.16
2023-02-16T07:13:08.558Z,53.81
2023-02-16T07:15:11.580Z,54.14
2023-02-16T07:17:14.392Z,54.25
2023-02-16T07:19:18.749Z,53.99
2023-02-16T07:21:21.583Z,54.11
2023-02-16T07:23:24.671Z,54.31
2023-02-16T07:25:27.552Z,54.28
2023-02-16T07:27:30.387Z,54.01
2023-02-16T07:29:33.277Z,54.00
2023-02-16T07:31:36.283Z,54.12
2023-02-16T07:33:39.377Z,54.00
2023-02-16T07:35:43.774Z,53.99
2023-02-16T07:37:46.597Z,54.05
2023-02-16T07:39:49.398Z,54.34
2023-02-16T07:41:52.276Z,54.50
2023-02-16T07:43:55.207Z,54.35
2023-02-16T07:45:58.062Z,54.28
2023-02-16T07:48:01.311Z,54.27
2023-02-16T07:50:04.394Z,54.35
2023-02-16T07:52:08.729Z,54.18
2023-02-16T07:54:11.837Z,54.15
2023-02-16T07:56:20.872Z,54.12
2023-02-16T07:58:29.298Z,54.47
2023-02-16T08:00:32.258Z,54.19
2023-02-16T08:02:35.755Z,54.23
2023-02-16T08:04:38.682Z,54.54
2023-02-16T08:06:51.146Z,54.14
2023-02-16T08:08:55.377Z,54.52
2023-02-16T08:11:00.537Z,54.22
2023-02-16T08:13:03.474Z,54.26
2023-02-16T08:15:06.791Z,54.42
2023-02-16T08:17:10.320Z,54.41
2023-02-16T08:19:13.940Z,54.44
2023-02-16T08:21:18.720Z,54.19
2023-02-16T08:23:21.632Z,54.50
2023-02-16T08:25:25.977Z,54.36
2023-02-16T08:27:28.875Z,54.38
2023-02-16T08:29:32.363Z,54.82
2023-02-16T08:31:38.198Z,54.72
2023-02-16T08:33:42.326Z,54.76
2023-02-16T08:35:46.606Z,54.78
2023-02-16T08:37:50.613Z,54.70
2023-02-16T08:39:54.055Z,54.87
2023-02-16T08:41:59.219Z,54.75
2023-02-16T08:44:02.908Z,54.78
2023-02-16T08:46:08.224Z,54.83
2023-02-16T08:48:11.751Z,54.73
2023-02-16T08:50:17.208Z,54.93
2023-02-16T08:52:20.467Z,55.16
2023-02-16T08:54:27.103Z,54.78
2023-02-16T08:56:35.869Z,54.93
2023-02-16T08:58:40.130Z,55.19
2023-02-16T09:00:43.694Z,55.00
2023-02-16T09:02:46.774Z,55.03
2023-02-16T09:04:49.891Z,55.00
2023-02-16T09:06:53.445Z,55.11
2023-02-16T09:08:58.042Z,55.10
2023-02-16T09:11:03.248Z,55.07
2023-02-16T09:13:06.398Z,54.97
2023-02-16T09:15:12.351Z,55.32
2023-02-16T09:17:15.141Z,55.14
2023-02-16T09:19:20.498Z,55.06
2023-02-16T09:21:27.915Z,54.91
2023-02-16T09:23:33.116Z,55.38
2023-02-16T09:25:38.081Z,55.36
2023-02-16T09:27:40.976Z,55.29
2023-02-16T09:29:43.864Z,55.25
2023-02-16T09:31:48.176Z,55.06
2023-02-16T09:33:51.373Z,54.95
2023-02-16T09:35:54.604Z,55.26
2023-02-16T09:37:58.573Z,55.02
2023-02-16T09:40:01.431Z,55.01
2023-02-16T09:42:30.985Z,55.23
2023-02-16T09:44:45.556Z,54.95
2023-02-16T09:46:50.572Z,55.11
2023-02-16T09:48:53.979Z,55.28
2023-02-16T09:50:59.917Z,55.28
2023-02-16T09:53:08.541Z,55.20
2023-02-16T09:55:15.360Z,55.09
2023-02-16T09:57:23.916Z,54.94
2023-02-16T09:59:42.551Z,55.16
2023-02-16T10:01:53.781Z,54.98
2023-02-16T10:04:06.906Z,54.93
2023-02-16T10:06:28.748Z,54.99
2023-02-16T10:08:37.285Z,54.72
2023-02-16T10:10:47.384Z,54.62
2023-02-16T10:12:54.789Z,54.62
2023-02-16T10:15:04.054Z,54.67
2023-02-16T10:17:20.558Z,55.07
2023-02-16T10:19:29.505Z,54.74
2023-02-16T10:21:33.588Z,54.82
2023-02-16T10:23:46.370Z,54.75
2023-02-16T10:25:54.673Z,54.87
2023-02-16T10:28:12.873Z,54.86
2023-02-16T10:30:18.301Z,54.93
2023-02-16T10:32:29.178Z,54.76
2023-02-16T10:34:49.462Z,54.71
2023-02-16T10:37:04.953Z,54.57
2023-02-16T10:39:16.594Z,54.53
2023-02-16T10:41:29.749Z,54.84
2023-02-16T10:43:44.965Z,54.91
2023-02-16T10:45:52.487Z,54.96
2023-02-16T10:47:57.171Z,54.97
2023-02-16T10:50:00.470Z,54.78
2023-02-16T10:52:04.547Z,54.80
2023-02-16T10:54:16.419Z,54.98
2023-02-16T10:56:40.350Z,54.75
2023-02-16T10:58:44.147Z,54.49
2023-02-16T11:00:55.657Z,54.69
2023-02-16T11:03:03.877Z,55.09
2023-02-16T11:05:32.110Z,55.04
2023-02-16T11:07:35.104Z,55.04
2023-02-16T11:09:38.986Z,54.63
2023-02-16T11:11:42.867Z,54.89
2023-02-16T11:13:50.282Z,54.67
2023-02-16T11:15:55.904Z,54.33
2023-02-16T11:18:04.745Z,54.76
2023-02-16T11:20:10.148Z,54.62
2023-02-16T11:22:27.897Z,54.43
2023-02-16T11:24:33.203Z,54.52
2023-02-16T11:26:36.032Z,54.63
2023-02-16T11:28:40.816Z,54.88
2023-02-16T11:30:46.326Z,54.58
2023-02-16T11:32:50.018Z,54.34
2023-02-16T11:34:54.745Z,54.33
2023-02-16T11:37:04.725Z,54.23
2023-02-16T11:39:15.907Z,54.57
2023-02-16T11:41:26.492Z,54.60
2023-02-16T11:43:33.255Z,54.58
2023-02-16T11:45:37.558Z,54.46
2023-02-16T11:47:43.437Z,54.24
2023-02-16T11:49:48.813Z,54.53
2023-02-16T11:51:53.088Z,54.14
2023-02-16T11:54:01.948Z,54.27
2023-02-16T11:56:23.342Z,54.06
2023-02-16T11:58:29.199Z,54.08
2023-02-16T12:00:34.635Z,54.21
2023-02-16T12:03:00.164Z,54.36
2023-02-16T12:05:20.461Z,54.08
2023-02-16T12:07:34.946Z,54.17
2023-02-16T12:09:46.322Z,54.05
2023-02-16T12:12:01.209Z,53.82
2023-02-16T12:14:17.686Z,54.00
2023-02-16T12:16:31.450Z,53.91
2023-02-16T12:18:45.897Z,53.54
2023-02-16T12:20:56.154Z,53.41
2023-02-16T12:23:10.427Z,53.77
2023-02-16T12:25:28.152Z,53.81
2023-02-16T12:27:37.830Z,53.30
2023-02-16T12:29:47.739Z,53.31
2023-02-16T12:32:05.526Z,53.71
2023-02-16T12:34:22.002Z,53.50
2023-02-16T12:36:40.690Z,53.15
2023-02-16T12:38:54.399Z,53.50
2023-02-16T12:41:07.216Z,53.35
2023-02-16T12:43:26.501Z,52.99
2023-02-16T12:45:33.586Z,53.35
2023-02-16T12:47:41.059Z,53.25
2023-02-16T12:49:52.794Z,53.19
2023-02-16T12:52:04.349Z,52.90
2023-02-16T12:54:15.229Z,53.13
2023-02-16T12:56:23.307Z,52.90
2023-02-16T12:58:29.934Z,52.71
2023-02-16T13:00:42.128Z,52.67
2023-02-16T13:02:50.807Z,52.85
2023-02-16T13:05:00.697Z,52.81
2023-02-16T13:07:09.422Z,52.32
2023-02-16T13:09:26.063Z,52.29
2023-02-16T13:11:35.707Z,52.13
2023-02-16T13:13:39.415Z,51.88
2023-02-16T13:15:48.823Z,51.84
2023-02-16T13:17:56.706Z,51.58
2023-02-16T13:19:59.613Z,51.42
2023-02-16T13:22:25.476Z,51.59
2023-02-16T13:24:40.131Z,51.49
2023-02-16T13:27:03.434Z,51.22
2023-02-16T13:29:38.732Z,51.51
2023-02-16T13:31:56.685Z,51.18
2023-02-16T13:34:36.142Z,50.91
2023-02-16T13:36:43.801Z,50.71
2023-02-16T13:39:05.242Z,50.91
2023-02-16T13:41:30.794Z,50.55
2023-02-16T13:43:37.083Z,50.74
2023-02-16T13:45:43.998Z,50.35
2023-02-16T13:47:47.079Z,50.42
2023-02-16T13:49:50.437Z,50.42
2023-02-16T13:51:53.253Z,50.68
2023-02-16T13:53:59.194Z,50.38
2023-02-16T13:56:25.952Z,50.48
2023-02-16T13:58:32.359Z,50.39
2023-02-16T14:00:38.238Z,50.36
2023-02-16T14:02:59.774Z,50.36
2023-02-16T14:05:10.687Z,49.98
2023-02-16T14:07:33.328Z,50.27
2023-02-16T14:09:50.693Z,49.98
2023-02-16T14:12:15.451Z,49.90
2023-02-16T14:14:28.607Z,49.96
2023-02-16T14:16:34.684Z,49.83
2023-02-16T14:18:43.500Z,49.75
2023-02-16T14:20:46.587Z,49.56
2023-02-16T14:22:51.761Z,49.25
2023-02-16T14:24:57.682Z,49.33
2023-02-16T14:27:02.838Z,49.48
2023-02-16T14:29:18.523Z,49.27
2023-02-16T14:31:23.891Z,48.93
2023-02-16T14:33:41.939Z,49.18
2023-02-16T14:35:47.970Z,49.01
2023-02-16T14:37:59.360Z,48.76
2023-02-16T14:40:18.389Z,48.97
2023-02-16T14:42:31.935Z,48.51
2023-02-16T14:44:54.934Z,48.49
2023-02-16T14:47:09.513Z,48.34
2023-02-16T14:49:48.712Z,48.31
2023-02-16T14:52:14.568Z,48.06
2023-02-16T14:54:38.005Z,48.08
2023-02-16T14:56:43.020Z,47.99
2023-02-16T14:58:55.007Z,47.87
2023-02-16T15:01:07.335Z,47.98
2023-02-16T15:03:18.750Z,48.03
2023-02-16T15:05:24.751Z,47.73
2023-02-16T15:07:29.793Z,47.62
2023-02-16T15:09:34.354Z,47.62
2023-02-16T15:12:02.290Z,47.66
2023-02-16T15:14:09.715Z,47.35
2023-02-16T15:16:17.498Z,47.61
2023-02-16T15:18:24.044Z,47.81
2023-02-16T15:20:33.195Z,47.89
2023-02-16T15:22:38.779Z,47.85
2023-02-16T15:24:42.813Z,47.84
2023-02-16T15:26:55.837Z,48.13
2023-02-16T15:29:00.205Z,48.20
2023-02-16T15:31:06.810Z,48.10
2023-02-16T15:33:26.568Z,47.94
2023-02-16T15:35:37.661Z,47.94
2023-02-16T15:37:41.195Z,48.04
2023-02-16T15:39:57.928Z,48.14
2023-02-16T15:42:23.693Z,48.30
2023-02-16T15:44:34.313Z,48.12
2023-02-16T15:46:39.887Z,48.06
2023-02-16T15:48:44.251Z,48.14
2023-02-16T15:50:47.629Z,48.20
2023-02-16T15:52:50.608Z,48.12
2023-02-16T15:54:55.816Z,48.50
2023-02-16T15:57:01.227Z,48.50
2023-02-16T15:59:06.852Z,48.36
2023-02-16T16:01:13.950Z,48.71
2023-02-16T16:03:18.390Z,48.53
2023-02-16T16:05:27.005Z,48.65
2023-02-16T16:07:35.515Z,48.96
2023-02-16T16:09:39.730Z,48.64
2023-02-16T16:11:43.775Z,49.01
2023-02-16T16:13:46.684Z,48.93
2023-02-16T16:15:51.226Z,49.06
2023-02-16T16:17:59.698Z,49.36
2023-02-16T16:20:26.297Z,49.34
2023-02-16T16:22:34.388Z,49.00
2023-02-16T16:24:39.367Z,49.48
2023-02-16T16:26:53.141Z,49.47
2023-02-16T16:28:56.872Z,49.64
2023-02-16T16:31:08.564Z,49.60
2023-02-16T16:33:14.693Z,49.68
2023-02-16T16:35:22.675Z,49.78
2023-02-16T16:37:32.425Z,49.59
2023-02-16T16:39:40.359Z,49.94
2023-02-16T16:41:46.748Z,49.92
2023-02-16T16:43:55.024Z,50.35
2023-02-16T16:46:13.607Z,50.38
2023-02-16T16:48:20.344Z,50.57
2023-02-16T16:50:32.914Z,50.62
2023-02-16T16:52:45.700Z,50.66
2023-02-16T16:54:49.042Z,50.77
2023-02-16T16:56:51.881Z,50.80
2023-02-16T16:58:57.377Z,50.94
2023-02-16T17:01:00.092Z,50.86
2023-02-16T17:03:03.715Z,50.78
2023-02-16T17:05:07.996Z,50.80
2023-02-16T17:07:11.038Z,51.08
2023-02-16T17:09:16.821Z,50.71
2023-02-16T17:11:26.025Z,50.96
2023-02-16T17:13:29.031Z,50.92
2023-02-16T17:15:42.761Z,50.92
2023-02-16T17:17:45.750Z,51.09
2023-02-16T17:19:48.652Z,50.95
2023-02-16T17:21:51.652Z,50.67
2023-02-16T17:23:54.466Z,50.88
2023-02-16T17:25:59.099Z,51.01
2023-02-16T17:28:02.323Z,50.69
2023-02-16T17:30:06.217Z,51.03
2023-02-16T17:32:10.165Z,51.02
2023-02-16T17:34:12.993Z,50.78
2023-02-16T17:36:17.126Z,50.85
2023-02-16T17:38:22.208Z,51.08
2023-02-16T17:40:26.939Z,50.91
2023-02-16T17:42:31.084Z,50.61
2023-02-16T17:44:33.899Z,50.87
2023-02-16T17:46:36.689Z,51.01
2023-02-16T17:48:39.605Z,50.97
2023-02-16T17:50:42.593Z,50.79
2023-02-16T17:52:46.075Z,50.44
2023-02-16T17:54:48.774Z,50.37
2023-02-16T17:56:51.506Z,50.44
2023-02-16T17:58:55.666Z,50.25
2023-02-16T18:00:58.557Z,49.95
2023-02-16T18:03:01.435Z,49.79
2023-02-16T18:05:04.200Z,49.99
2023-02-16T18:07:06.971Z,49.82
2023-02-16T18:09:13.020Z,49.77
2023-02-16T18:11:15.902Z,49.63
2023-02-16T18:13:19.619Z,49.48
2023-02-16T18:15:23.926Z,49.66
2023-02-16T18:17:26.739Z,49.70
2023-02-16T18:19:30.915Z,49.56
2023-02-16T18:21:33.682Z,49.27
2023-02-16T18:23:36.715Z,49.53
2023-02-16T18:25:41.436Z,49.55
2023-02-16T18:27:44.697Z,49.41
2023-02-16T18:29:47.463Z,49.12
2023-02-16T18:31:52.041Z,49.30
2023-02-16T18:33:54.805Z,49.31
2023-02-16T18:35:58.576Z,49.00
2023-02-16T18:38:01.437Z,49.12
2023-02-16T18:40:05.040Z,48.92
2023-02-16T18:42:08.276Z,48.94
2023-02-16T18:44:11.704Z,48.95
2023-02-16T18:46:14.542Z,48.86
2023-02-16T18:48:19.800Z,48.80
2023-02-16T18:50:22.543Z,48.59
2023-02-16T18:52:26.123Z,48.80
2023-02-16T18:54:30.209Z,48.55
2023-02-16T18:56:35.305Z,48.71
2023-02-16T18:58:38.455Z,48.52
2023-02-16T19:00:41.752Z,48.74
2023-02-16T19:02:45.004Z,48.28
2023-02-16T19:04:49.255Z,48.33
2023-02-16T19:06:52.328Z,48.26
2023-02-16T19:08:56.243Z,48.29
2023-02-16T19:10:58.976Z,48.18
2023-02-16T19:13:02.285Z,47.99
2023-02-16T19:15:05.904Z,47.93
2023-02-16T19:17:08.688Z,48.35
2023-02-16T19:19:11.637Z,48.06
2023-02-16T19:21:16.082Z,48.07
2023-02-16T19:23:18.915Z,47.83
2023-02-16T19:25:22.270Z,47.93
2023-02-16T19:27:25.327Z,47.98
2023-02-16T19:29:28.115Z,48.09
2023-02-16T19:31:32.643Z,47.80
2023-02-16T19:33:36.429Z,48.00
2023-02-16T19:35:39.227Z,47.59
2023-02-16T19:37:43.692Z,47.85
2023-02-16T19:39:46.573Z,47.83
2023-02-16T19:41:49.356Z,47.85
2023-02-16T19:43:52.728Z,47.87
2023-02-16T19:45:56.655Z,47.65
2023-02-16T19:47:59.461Z,47.61
2023-02-16T19:50:03.062Z,47.84
2023-02-16T19:52:06.437Z,47.85
2023-02-16T19:54:10.675Z,47.79
2023-02-16T19:56:16.581Z,47.35
2023-02-16T19:58:19.369Z,47.39
2023-02-16T20:00:22.104Z,47.68
2023-02-16T20:02:24.891Z,47.62
2023-02-16T20:04:28.501Z,47.67
2023-02-16T20:06:33.071Z,47.73
2023-02-16T20:08:35.813Z,47.48
2023-02-16T20:10:42.956Z,47.59
2023-02-16T20:12:45.654Z,47.59
2023-02-16T20:14:48.517Z,47.19
2023-02-16T20:16:51.825Z,47.33
2023-02-16T20:18:54.982Z,47.15
2023-02-16T20:21:01.172Z,47.36
2023-02-16T20:23:03.930Z,47.14
2023-02-16T20:25:07.459Z,47.21
2023-02-16T20:27:11.874Z,47.31
2023-02-16T20:29:16.098Z,47.18
2023-02-16T20:31:22.359Z,47.16
2023-02-16T20:33:25.578Z,47.40
2023-02-16T20:35:28.466Z,47.42
2023-02-16T20:37:31.473Z,47.20
2023-02-16T20:39:34.381Z,47.11
2023-02-16T20:41:37.494Z,47.25
2023-02-16T20:43:43.164Z,47.23
2023-02-16T20:45:46.033Z,47.14
2023-02-16T20:47:48.909Z,47.32
2023-02-16T20:49:53.870Z,47.04
2023-02-16T20:51:56.827Z,47.02
2023-02-16T20:54:00.458Z,47.33
2023-02-16T20:56:06.396Z,47.46
2023-02-16T20:58:09.468Z,47.12
2023-02-16T21:00:18.811Z,47.31
2023-02-16T21:02:21.832Z,47.35
2023-02-16T21:04:24.951Z,47.44
2023-02-16T21:06:29.238Z,47.43
2023-02-16T21:08:32.121Z,47.17
2023-02-16T21:10:34.915Z,47.37
2023-02-16T21:12:37.868Z,47.23
2023-02-16T21:14:40.661Z,47.62
2023-02-16T21:16:45.036Z,47.53
2023-02-16T21:18:48.079Z,47.36
2023-02-16T21:20:51.315Z,47.59
2023-02-16T21:22:54.122Z,47.48
2023-02-16T21:24:56.829Z,47.24
2023-02-16T21:26:59.562Z,47.46
2023-02-16T21:29:02.563Z,47.45
2023-02-16T21:31:07.047Z,47.43
2023-02-16T21:33:11.290Z,47.25
2023-02-16T21:35:14.236Z,47.53
2023-02-16T21:37:16.996Z,47.46
2023-02-16T21:39:39.739Z,47.27
2023-02-16T21:41:42.056Z,47.33
2023-02-16T21:43:45.054Z,47.47
2023-02-16T21:45:48.473Z,47.30
2023-02-16T21:48:08.673Z,47.73
2023-02-16T21:50:13.152Z,47.65
2023-02-16T21:52:15.894Z,47.28
2023-02-16T21:54:40.962Z,47.49
2023-02-16T21:56:45.036Z,47.49
2023-02-16T21:58:48.127Z,47.63
2023-02-16T22:00:51.583Z,47.39
2023-02-16T22:02:54.653Z,47.80
2023-02-16T22:04:57.396Z,47.63
2023-02-16T22:07:01.975Z,47.54
2023-02-16T22:09:07.478Z,47.57
2023-02-16T22:11:13.291Z,47.73
2023-02-16T22:13:16.094Z,47.75
2023-02-16T22:15:18.949Z,47.63
2023-02-16T22:17:21.978Z,47.51
2023-02-16T22:19:24.906Z,47.45
2023-02-16T22:21:28.282Z,47.73
2023-02-16T22:23:32.618Z,47.68
2023-02-16T22:25:40.490Z,47.73
2023-02-16T22:27:43.740Z,48.00
2023-02-16T22:29:46.608Z,47.64
2023-02-16T22:31:50.618Z,47.57
2023-02-16T22:33:57.983Z,48.11
2023-02-16T22:36:07.611Z,47.81
2023-02-16T22:38:10.447Z,48.08
2023-02-16T22:40:14.686Z,48.10
2023-02-16T22:42:17.412Z,47.89
2023-02-16T22:44:20.271Z,47.84
2023-02-16T22:46:24.701Z,47.89
2023-02-16T22:48:27.533Z,48.06
2023-02-16T22:50:30.429Z,47.77
2023-02-16T22:52:33.460Z,48.25
2023-02-16T22:54:36.262Z,48.27
2023-02-16T22:56:40.553Z,47.87
2023-02-16T22:58:44.231Z,48.39
2023-02-16T23:00:47.875Z,48.21
2023-02-16T23:02:50.794Z,48.26
2023-02-16T23:04:58.539Z,48.40
2023-02-16T23:07:01.339Z,48.07
2023-02-16T23:09:06.704Z,48.14
2023-02-16T23:11:09.500Z,48.17
2023-02-16T23:13:13.534Z,48.34
2023-02-16T23:15:16.463Z,48.20
2023-02-16T23:17:19.772Z,48.36
2023-02-16T23:19:24.771Z,48.59
2023-02-16T23:21:29.458Z,48.27
2023-02-16T23:23:32.184Z,48.29
2023-02-16T23:25:34.948Z,48.61
2023-02-16T23:27:37.835Z,48.33
2023-02-16T23:29:42.133Z,48.36
2023-02-16T23:31:46.761Z,48.63
2023-02-16T23:33:50.750Z,48.74
2023-02-16T23:35:55.087Z,48.66
2023-02-16T23:37:57.804Z,48.20
2023-02-16T23:40:00.642Z,48.22
2023-02-16T23:42:04.548Z,48.33
2023-02-16T23:44:08.316Z,48.32
2023-02-16T23:46:13.483Z,48.38
2023-02-16T23:48:16.527Z,48.24
2023-02-16T23:50:19.513Z,48.42
2023-02-16T23:52:22.362Z,48.39
2023-02-16T23:54:25.167Z,48.08
2023-02-16T23:56:29.151Z,48.38
2023-02-16T23:58:34.070Z,48.28
